Main page
Satellite images 10-day forecastsClimateMarine weather Cyclones Lightning AirportsFAQ Newsletter About
Weather : Europe Africa North America South America Asia Australia-Oceania Others
Languages Contact

Nice, France

Nice Côte d'Azur Airport

latitude: 43-39N, longitude: 007-12E, elevation: 4 m


METAR: LFMN 051400Z 08017KT CAVOK 22/12 Q1011 NOSIG
TAF: LFMN 051100Z 0512/0618 09015G25KT CAVOK BECMG 0516/0519 VRB03KT BECMG 0605/0607 BKN010 BECMG 0608/0610 12010KT

Time: 16:15 (14:15 UTC)

Current weather observation

The report was made 15 minutes ago, at 14:00 UTC
Wind 17 kt from the East
Temperature 22°C
Humidity 53%
Pressure 1011 hPa
Visibility 10 km or more
no clouds below 1500 m and no cumulonimbus

Change units

Forecast

The report was made 3 hours and 15 minutes ago, at 11:00 UTC
Forecast valid from 05 at 12 UTC to 06 at 18 UTC
Wind 15 kt from the East with gusts up to 25 kt
Visibility 10 km or more
no clouds below 1500 m and no cumulonimbus
Becoming
from 05 at 16 UTC to 05 at 19 UTC
Wind 3 kt from variable directions
Becoming
from 06 at 05 UTC to 06 at 07 UTC
Broken clouds at a height of 1000 ft
Becoming
from 06 at 08 UTC to 06 at 10 UTC
Wind 10 kt from the East/Southeast
The information on this site is subject to a disclaimer
Weather : Europe Africa North America South America Asia Australia-Oceania Others
Satellite images 10-day forecastsClimateMarine weather Cyclones Lightning AirportsFAQ Languages Contact Newsletter About